SOUTHERN NASSAU  -  Coastal Flood Statement Coastal Flood Statement      

Active alerts

Southern Nassau
  Details for Southern Nassau Coastal Flood Statement


WXM80 ListenWXM80 Stop

You find our weather info also at:

UK Metoffice

WeatherCloud

Weather Underground

Northeastern Weather Network

AWEKAS

Citizen Weather Observer Program (CWOP)

HAMweather, WeatherForYou, PWS Weather


Weather Underground History page Text

Daily Summary for June 28, 2016 Units:  English    Metric   Both
« Previous Day
Next Day »
Daily Weekly Monthly Yearly Custom
  High: Low: Average:
Temperature: 74.5 °F 69.2 °F 71 °F
Dew Point: 70.9 °F 65.0 °F 68.4 °F
Humidity: 96 % 82 % 92 %
Wind Speed: 5.4 mph 0.0 mph 1.3 mph
Wind Gust: 11.5 mph - -
Wind:- - South
Pressure: 29.98 in 29.85 in -
Precipitation: 0.08 in    
Historical Graphs
 
 
Tabular Data for June 28, 2016
Time Temperature Dew Point Pressure Wind Wind Speed Wind Gust Humidity Rainfall Rate (Hourly)
00:02 70.3 °F 66.9 °F 29.98 in SE 0.1 mph 2.3 mph 89 % 0.00 in
00:07 70.3 °F 66.9 °F 29.98 in SSW 1.0 mph 3.5 mph 89 % 0.01 in
00:12 70.3 °F 66.9 °F 29.98 in SSW 1.6 mph 3.5 mph 89 % 0.00 in
00:17 70.4 °F 67.3 °F 29.98 in SE 1.4 mph 3.5 mph 90 % 0.00 in
00:22 70.4 °F 67.3 °F 29.98 in SSE 0.3 mph 2.3 mph 90 % 0.00 in
00:27 70.4 °F 67.3 °F 29.97 in South 0.8 mph 3.5 mph 90 % 0.00 in
00:32 70.4 °F 67.3 °F 29.97 in South 0.5 mph 2.3 mph 90 % 0.00 in
00:37 70.4 °F 67.3 °F 29.97 in South 1.0 mph 3.5 mph 90 % 0.00 in
00:42 70.4 °F 67.3 °F 29.97 in SSW 1.3 mph 4.6 mph 90 % 0.00 in
00:48 70.4 °F 67.3 °F 29.97 in South 0.6 mph 2.3 mph 90 % 0.00 in
00:53 70.4 °F 67.3 °F 29.97 in SSW 1.2 mph 4.6 mph 90 % 0.00 in
00:58 70.4 °F 67.3 °F 29.97 in SSW 1.3 mph 3.5 mph 90 % 0.00 in
01:03 70.4 °F 67.3 °F 29.97 in SW 1.2 mph 3.5 mph 90 % 0.00 in
01:08 70.3 °F 67.2 °F 29.97 in SW 1.6 mph 3.5 mph 90 % 0.00 in
01:13 70.3 °F 67.5 °F 29.97 in SW 1.4 mph 3.0 mph 91 % 0.00 in
01:18 70.3 °F 67.5 °F 29.96 in SSW 1.1 mph 2.3 mph 91 % 0.00 in
01:28 70.2 °F 67.4 °F 29.96 in SSW 3.5 mph 4.6 mph 91 % 0.00 in
01:33 70.1 °F 67.7 °F 29.96 in SSW 1.7 mph 4.6 mph 92 % 0.01 in
01:39 70.1 °F 67.7 °F 29.96 in SSW 2.6 mph 3.5 mph 92 % 0.01 in
01:44 70.0 °F 67.6 °F 29.96 in SW 1.4 mph 3.5 mph 92 % 0.01 in
01:49 70.0 °F 67.6 °F 29.95 in Calm   1.2 mph 92 % 0.02 in
01:54 69.9 °F 67.8 °F 29.95 in SW 1.9 mph 4.6 mph 93 % 0.02 in
01:59 69.9 °F 67.8 °F 29.95 in WSW 1.6 mph 3.5 mph 93 % 0.02 in
02:04 69.8 °F 67.7 °F 29.95 in West 1.1 mph 2.3 mph 93 % 0.02 in
02:09 69.7 °F 67.6 °F 29.95 in South 0.9 mph 3.5 mph 93 % 0.02 in
02:14 69.7 °F 67.6 °F 29.95 in SSW 2.3 mph 3.5 mph 93 % 0.02 in
02:19 69.7 °F 67.6 °F 29.95 in SSE 1.2 mph 2.3 mph 93 % 0.03 in
02:24 69.6 °F 67.8 °F 29.95 in SW 0.5 mph 2.3 mph 94 % 0.03 in
02:30 69.6 °F 67.8 °F 29.95 in West 1.4 mph 4.6 mph 94 % 0.03 in
02:35 69.6 °F 67.8 °F 29.95 in SW 3.2 mph 4.0 mph 94 % 0.02 in
02:40 69.6 °F 67.8 °F 29.95 in SSW 3.1 mph 6.9 mph 94 % 0.02 in
02:45 69.6 °F 67.8 °F 29.95 in South 3.1 mph 7.0 mph 94 % 0.01 in
02:55 69.5 °F 67.7 °F 29.94 in SW 0.5 mph 3.5 mph 94 % 0.01 in
03:00 69.5 °F 68.0 °F 29.94 in SW 1.3 mph 3.5 mph 95 % 0.02 in
03:05 69.5 °F 68.0 °F 29.94 in Calm   2.3 mph 95 % 0.02 in
03:10 69.6 °F 68.1 °F 29.94 in SW 0.4 mph 3.5 mph 95 % 0.03 in
03:15 69.5 °F 68.0 °F 29.94 in SSW 2.0 mph 3.5 mph 95 % 0.04 in
03:21 69.5 °F 68.0 °F 29.94 in SSW 0.3 mph 1.2 mph 95 % 0.04 in
03:26 69.5 °F 68.0 °F 29.94 in SW 0.8 mph 3.5 mph 95 % 0.04 in
03:31 69.5 °F 68.0 °F 29.94 in SW 1.3 mph 3.5 mph 95 % 0.04 in
03:36 69.5 °F 68.0 °F 29.94 in SW 0.4 mph 2.3 mph 95 % 0.04 in
03:41 69.5 °F 68.0 °F 29.94 in SW 0.7 mph 2.3 mph 95 % 0.04 in
03:46 69.5 °F 68.0 °F 29.94 in SW 1.5 mph 2.3 mph 95 % 0.05 in
03:51 69.4 °F 67.9 °F 29.94 in South 1.0 mph 3.5 mph 95 % 0.05 in
04:01 69.4 °F 67.9 °F 29.93 in SE 0.3 mph 2.3 mph 95 % 0.04 in
04:06 69.4 °F 67.9 °F 29.94 in WSW 2.4 mph 2.4 mph 95 % 0.04 in
04:12 69.4 °F 67.9 °F 29.93 in Calm   1.2 mph 95 % 0.03 in
04:17 69.3 °F 67.8 °F 29.93 in WSW 0.2 mph 1.2 mph 95 % 0.02 in
04:22 69.3 °F 67.8 °F 29.94 in SE 0.9 mph 3.5 mph 95 % 0.01 in
04:27 69.2 °F 67.7 °F 29.93 in SSE 0.2 mph 1.2 mph 95 % 0.01 in
04:32 69.2 °F 67.7 °F 29.93 in SSE 0.1 mph   95 % 0.01 in
04:37 69.2 °F 67.7 °F 29.94 in SW 0.1 mph 2.0 mph 95 % 0.01 in
04:42 69.2 °F 67.7 °F 29.94 in WSW 0.4 mph 2.0 mph 95 % 0.01 in
04:47 69.2 °F 67.7 °F 29.94 in SSW 0.1 mph 1.2 mph 95 % 0.00 in
04:57 69.2 °F 67.7 °F 29.94 in Calm   1.2 mph 95 % 0.00 in
05:03 69.2 °F 68.0 °F 29.94 in Calm     96 % 0.00 in
05:08 69.2 °F 68.0 °F 29.94 in Calm     96 % 0.00 in
05:13 69.2 °F 68.0 °F 29.94 in Calm     96 % 0.00 in
05:18 69.2 °F 68.0 °F 29.94 in Calm     96 % 0.00 in
05:23 69.3 °F 68.1 °F 29.94 in SSW 0.1 mph 1.0 mph 96 % 0.00 in
05:28 69.3 °F 68.1 °F 29.95 in Calm     96 % 0.00 in
05:33 69.3 °F 68.1 °F 29.95 in Calm     96 % 0.00 in
05:38 69.3 °F 68.1 °F 29.95 in SW 0.1 mph 1.0 mph 96 % 0.00 in
05:43 69.3 °F 68.1 °F 29.95 in Calm     96 % 0.00 in
05:48 69.3 °F 68.1 °F 29.95 in Calm     96 % 0.00 in
05:54 69.3 °F 68.1 °F 29.95 in Calm     96 % 0.00 in
05:59 69.4 °F 68.2 °F 29.95 in Calm     96 % 0.00 in
06:04 69.4 °F 68.2 °F 29.95 in Calm     96 % 0.00 in
06:09 69.4 °F 68.2 °F 29.95 in Calm     96 % 0.00 in
06:14 69.4 °F 68.2 °F 29.95 in Calm     96 % 0.00 in
06:19 69.4 °F 68.2 °F 29.95 in Calm     96 % 0.00 in
06:24 69.4 °F 68.2 °F 29.95 in Calm     96 % 0.00 in
06:29 69.5 °F 68.3 °F 29.95 in Calm     96 % 0.00 in
06:34 69.5 °F 68.3 °F 29.95 in Calm     96 % 0.00 in
06:39 69.5 °F 68.3 °F 29.95 in Calm     96 % 0.00 in
06:45 69.6 °F 68.4 °F 29.95 in Calm     96 % 0.00 in
06:50 69.6 °F 68.4 °F 29.95 in Calm     96 % 0.00 in
06:55 69.7 °F 68.5 °F 29.95 in Calm   1.2 mph 96 % 0.00 in
07:00 69.7 °F 68.5 °F 29.95 in Calm   1.0 mph 96 % 0.00 in
07:05 69.7 °F 68.5 °F 29.96 in Calm     96 % 0.00 in
07:10 69.7 °F 68.5 °F 29.96 in Calm   1.0 mph 96 % 0.00 in
07:15 69.7 °F 68.5 °F 29.96 in WSW 1.0 mph 2.3 mph 96 % 0.00 in
07:20 69.6 °F 68.4 °F 29.96 in SW 0.2 mph 2.0 mph 96 % 0.00 in
07:25 69.7 °F 68.5 °F 29.96 in Calm   3.5 mph 96 % 0.00 in
07:30 69.7 °F 68.5 °F 29.95 in SW 0.4 mph 2.3 mph 96 % 0.00 in
07:35 69.7 °F 68.5 °F 29.96 in WSW 0.6 mph 2.3 mph 96 % 0.00 in
07:41 69.7 °F 68.5 °F 29.96 in SE 0.3 mph 3.5 mph 96 % 0.00 in
07:46 69.7 °F 68.5 °F 29.96 in Calm   1.2 mph 96 % 0.00 in
07:51 69.7 °F 68.2 °F 29.96 in Calm   3.5 mph 95 % 0.00 in
07:56 69.8 °F 68.3 °F 29.96 in SE 0.3 mph 1.2 mph 95 % 0.00 in
08:01 69.6 °F 67.5 °F 29.96 in South 2.3 mph 4.0 mph 93 % 0.00 in
08:06 69.5 °F 67.4 °F 29.96 in WSW 1.1 mph 2.3 mph 93 % 0.00 in
08:11 69.5 °F 67.1 °F 29.96 in SSE 2.8 mph 6.9 mph 92 % 0.00 in
08:16 69.5 °F 67.1 °F 29.96 in SE 0.9 mph 3.5 mph 92 % 0.00 in
08:21 69.5 °F 67.1 °F 29.96 in SW 0.7 mph 3.5 mph 92 % 0.00 in
08:26 69.4 °F 66.7 °F 29.96 in SSW 0.5 mph 2.3 mph 91 % 0.00 in
08:32 69.3 °F 65.9 °F 29.96 in SSE 1.4 mph 3.5 mph 89 % 0.00 in
08:42 69.3 °F 65.6 °F 29.96 in SW 1.1 mph 3.5 mph 88 % 0.00 in
08:47 69.2 °F 65.2 °F 29.96 in SE 1.5 mph 5.8 mph 87 % 0.00 in
08:52 69.2 °F 65.2 °F 29.96 in SE 1.0 mph 2.3 mph 87 % 0.00 in
08:57 69.2 °F 65.2 °F 29.96 in SE 2.4 mph 4.6 mph 87 % 0.00 in
09:02 69.3 °F 65.3 °F 29.96 in SSE 0.3 mph 1.2 mph 87 % 0.00 in
09:07 69.4 °F 65.7 °F 29.96 in SSW 1.2 mph 4.6 mph 88 % 0.00 in
09:12 69.4 °F 65.7 °F 29.97 in SSW 0.3 mph 2.3 mph 88 % 0.00 in
09:17 69.4 °F 65.7 °F 29.96 in SSE 1.3 mph 2.3 mph 88 % 0.00 in
09:23 69.4 °F 65.4 °F 29.96 in SW 1.7 mph 3.5 mph 87 % 0.00 in
09:28 69.5 °F 65.5 °F 29.96 in SE 0.8 mph 6.9 mph 87 % 0.00 in
09:33 69.6 °F 65.9 °F 29.96 in SSW 1.1 mph 3.5 mph 88 % 0.00 in
09:43 69.9 °F 65.9 °F 29.95 in Calm   2.3 mph 87 % 0.00 in
09:48 70.0 °F 65.6 °F 29.96 in SSE 1.1 mph 2.3 mph 86 % 0.00 in
09:53 70.2 °F 65.8 °F 29.95 in SSE 0.3 mph 3.5 mph 86 % 0.00 in
09:58 70.4 °F 65.7 °F 29.95 in ESE 0.4 mph 2.3 mph 85 % 0.00 in
10:03 70.6 °F 65.9 °F 29.95 in SSE 0.3 mph 3.5 mph 85 % 0.00 in
10:08 70.7 °F 66.0 °F 29.95 in South 0.4 mph 1.0 mph 85 % 0.00 in
10:14 70.8 °F 65.7 °F 29.95 in SE 2.2 mph 4.6 mph 84 % 0.00 in
10:19 70.8 °F 65.7 °F 29.95 in SE 2.7 mph 4.0 mph 84 % 0.00 in
10:24 70.8 °F 65.4 °F 29.95 in SSE 2.2 mph 5.8 mph 83 % 0.00 in
10:29 70.8 °F 65.0 °F 29.95 in SSW 0.9 mph 3.5 mph 82 % 0.00 in
10:34 70.8 °F 65.4 °F 29.95 in SSE 0.7 mph 2.3 mph 83 % 0.00 in
10:39 70.7 °F 65.3 °F 29.95 in SE 0.5 mph 2.0 mph 83 % 0.00 in
10:44 70.8 °F 65.7 °F 29.95 in SE 4.4 mph 5.8 mph 84 % 0.00 in
10:49 70.9 °F 66.2 °F 29.95 in SSE 1.4 mph 3.5 mph 85 % 0.00 in
10:54 71.0 °F 65.9 °F 29.95 in SSE 2.4 mph 10.4 mph 84 % 0.00 in
10:59 71.1 °F 66.0 °F 29.95 in SSE 3.5 mph 5.8 mph 84 % 0.00 in
11:05 71.1 °F 66.0 °F 29.95 in SE 3.5 mph 9.2 mph 84 % 0.00 in
11:10 71.1 °F 66.0 °F 29.95 in SE 0.3 mph 6.9 mph 84 % 0.00 in
11:15 71.1 °F 66.4 °F 29.95 in South 0.9 mph 6.9 mph 85 % 0.00 in
11:20 71.1 °F 66.4 °F 29.95 in SE 0.1 mph 2.3 mph 85 % 0.00 in
11:25 71.2 °F 66.5 °F 29.95 in South 3.9 mph 7.0 mph 85 % 0.00 in
11:30 71.1 °F 66.7 °F 29.95 in SE 0.9 mph 5.0 mph 86 % 0.00 in
11:35 71.0 °F 66.6 °F 29.95 in SE 1.7 mph 4.6 mph 86 % 0.00 in
11:40 70.9 °F 67.2 °F 29.95 in SE 0.7 mph 3.5 mph 88 % 0.00 in
11:50 70.8 °F 67.4 °F 29.95 in SE 0.1 mph 1.2 mph 89 % 0.00 in
12:01 70.7 °F 67.6 °F 29.94 in SE 1.9 mph 4.6 mph 90 % 0.00 in
12:06 70.4 °F 67.6 °F 29.94 in South 4.1 mph 8.1 mph 91 % 0.00 in
12:11 70.4 °F 68.0 °F 29.94 in SE 2.7 mph 8.1 mph 92 % 0.00 in
12:16 70.4 °F 68.0 °F 29.94 in SSE 0.2 mph 3.5 mph 92 % 0.00 in
12:21 70.4 °F 68.3 °F 29.94 in South 2.0 mph 3.5 mph 93 % 0.00 in
12:26 70.5 °F 68.4 °F 29.94 in SE 0.2 mph 2.3 mph 93 % 0.00 in
12:31 70.6 °F 68.2 °F 29.94 in SSE 1.9 mph 3.0 mph 92 % 0.00 in
12:41 70.7 °F 68.3 °F 29.94 in SSE 0.7 mph 2.3 mph 92 % 0.00 in
12:47 70.7 °F 68.3 °F 29.94 in SSE 2.2 mph 6.9 mph 92 % 0.00 in
12:52 70.8 °F 68.4 °F 29.94 in SSE 0.4 mph 3.5 mph 92 % 0.00 in
13:02 71.0 °F 68.2 °F 29.93 in SE 0.7 mph 2.3 mph 91 % 0.00 in
13:07 71.2 °F 68.4 °F 29.93 in SE 1.1 mph 4.6 mph 91 % 0.00 in
13:12 71.4 °F 68.3 °F 29.93 in SSE 0.8 mph 2.0 mph 90 % 0.00 in
13:17 71.5 °F 68.4 °F 29.93 in SE 0.6 mph 2.3 mph 90 % 0.00 in
13:22 71.6 °F 68.5 °F 29.93 in SSE 1.8 mph 4.6 mph 90 % 0.00 in
13:27 71.7 °F 68.6 °F 29.93 in SSE 3.0 mph 3.5 mph 90 % 0.00 in
13:32 71.8 °F 68.4 °F 29.92 in South 1.6 mph 8.1 mph 89 % 0.00 in
13:38 72.0 °F 68.6 °F 29.92 in SSE 4.4 mph 6.9 mph 89 % 0.00 in
13:43 72.4 °F 68.6 °F 29.92 in SSE 3.2 mph 10.4 mph 88 % 0.00 in
13:48 72.6 °F 68.8 °F 29.92 in South 1.5 mph 4.0 mph 88 % 0.00 in
13:53 72.7 °F 68.9 °F 29.92 in SW 0.5 mph 3.0 mph 88 % 0.00 in
13:58 72.9 °F 69.1 °F 29.92 in SSW 0.4 mph 1.2 mph 88 % 0.00 in
14:03 73.0 °F 69.2 °F 29.92 in SSW 1.4 mph 3.0 mph 88 % 0.00 in
14:08 73.2 °F 69.4 °F 29.92 in SW 3.3 mph 6.9 mph 88 % 0.00 in
14:13 73.3 °F 69.5 °F 29.92 in SE 1.0 mph 3.5 mph 88 % 0.00 in
14:18 73.6 °F 69.8 °F 29.92 in SSE 0.5 mph 2.3 mph 88 % 0.00 in
14:23 73.8 °F 69.7 °F 29.91 in SSE 3.5 mph 8.0 mph 87 % 0.00 in
14:29 73.9 °F 69.8 °F 29.91 in SSE 5.2 mph 10.4 mph 87 % 0.00 in
14:34 73.8 °F 69.7 °F 29.91 in SE 1.1 mph 4.6 mph 87 % 0.00 in
14:39 73.9 °F 69.8 °F 29.91 in SSE 0.2 mph 11.5 mph 87 % 0.00 in
14:44 73.9 °F 69.8 °F 29.90 in SE 3.3 mph 4.0 mph 87 % 0.00 in
14:49 73.9 °F 69.8 °F 29.90 in SSE 4.6 mph 8.1 mph 87 % 0.00 in
14:54 73.9 °F 69.8 °F 29.90 in SSE 2.5 mph 5.8 mph 87 % 0.00 in
14:59 73.9 °F 69.8 °F 29.90 in SE 3.1 mph 6.9 mph 87 % 0.00 in
15:04 74.0 °F 70.2 °F 29.90 in SE 1.6 mph 3.5 mph 88 % 0.00 in
15:09 74.0 °F 69.9 °F 29.89 in SE 3.0 mph 6.9 mph 87 % 0.00 in
15:20 74.3 °F 70.2 °F 29.89 in SE 2.4 mph 4.6 mph 87 % 0.00 in
15:25 74.4 °F 70.3 °F 29.89 in SE 0.3 mph 2.3 mph 87 % 0.00 in
15:30 74.5 °F 70.4 °F 29.89 in SE 1.0 mph 5.0 mph 87 % 0.00 in
15:35 74.5 °F 70.0 °F 29.89 in South 3.1 mph 6.9 mph 86 % 0.00 in
15:40 74.4 °F 70.3 °F 29.89 in South 3.1 mph 6.0 mph 87 % 0.00 in
15:45 74.5 °F 70.0 °F 29.89 in SSE 3.8 mph 9.2 mph 86 % 0.00 in
15:50 74.5 °F 70.4 °F 29.89 in SE 1.0 mph 2.3 mph 87 % 0.00 in
16:00 74.3 °F 70.2 °F 29.88 in SSE 1.4 mph 3.5 mph 87 % 0.00 in
16:05 74.1 °F 70.0 °F 29.88 in SSE 1.1 mph 4.6 mph 87 % 0.00 in
16:11 74.1 °F 70.3 °F 29.88 in SE 2.2 mph 2.2 mph 88 % 0.00 in
16:16 74.0 °F 70.2 °F 29.88 in SE 0.7 mph 4.0 mph 88 % 0.00 in
16:21 73.8 °F 70.0 °F 29.88 in South 1.0 mph 3.5 mph 88 % 0.00 in
16:26 73.5 °F 70.1 °F 29.88 in SSE 4.1 mph 5.8 mph 89 % 0.00 in
16:31 73.4 °F 70.3 °F 29.87 in SSE 1.3 mph 4.6 mph 90 % 0.00 in
16:36 73.4 °F 70.3 °F 29.87 in SE 0.7 mph 3.5 mph 90 % 0.00 in
16:41 73.5 °F 70.4 °F 29.87 in SSE 1.6 mph 5.8 mph 90 % 0.00 in
16:46 73.5 °F 70.1 °F 29.87 in SE 0.3 mph 3.5 mph 89 % 0.00 in
16:51 73.7 °F 70.6 °F 29.87 in SE 1.7 mph 4.0 mph 90 % 0.00 in
16:56 73.8 °F 70.7 °F 29.87 in SE 1.9 mph 6.9 mph 90 % 0.00 in
17:02 74.0 °F 70.9 °F 29.87 in SSE 4.5 mph 9.2 mph 90 % 0.00 in
17:07 74.0 °F 70.6 °F 29.87 in West 0.6 mph 2.3 mph 89 % 0.00 in
17:12 74.1 °F 70.6 °F 29.87 in SSE 1.3 mph 3.5 mph 89 % 0.00 in
17:17 74.1 °F 70.6 °F 29.87 in South 0.8 mph 2.0 mph 89 % 0.00 in
17:27 73.9 °F 70.1 °F 29.87 in SSE 5.2 mph 6.9 mph 88 % 0.00 in
17:32 73.9 °F 70.5 °F 29.87 in SE 0.4 mph 6.9 mph 89 % 0.00 in
17:37 74.0 °F 70.6 °F 29.87 in SSE 1.3 mph 2.3 mph 89 % 0.00 in
17:42 74.0 °F 70.6 °F 29.87 in SE 0.5 mph 3.5 mph 89 % 0.00 in
17:48 73.9 °F 70.5 °F 29.86 in SSE 2.8 mph 8.1 mph 89 % 0.00 in
17:53 73.8 °F 70.4 °F 29.86 in SE 0.4 mph 2.3 mph 89 % 0.00 in
17:58 73.9 °F 70.5 °F 29.86 in SE 1.0 mph 3.5 mph 89 % 0.00 in
18:03 73.9 °F 70.5 °F 29.86 in SE 1.7 mph 3.0 mph 89 % 0.00 in
18:08 73.8 °F 70.4 °F 29.87 in SE 2.2 mph 8.1 mph 89 % 0.00 in
18:13 73.5 °F 70.1 °F 29.87 in SSE 4.6 mph 9.0 mph 89 % 0.00 in
18:18 73.2 °F 70.1 °F 29.87 in SE 1.7 mph 7.0 mph 90 % 0.00 in
18:23 72.8 °F 69.7 °F 29.86 in SSE 3.7 mph 5.8 mph 90 % 0.00 in
18:28 72.7 °F 69.9 °F 29.87 in SE 5.4 mph 7.0 mph 91 % 0.00 in
18:33 72.3 °F 69.5 °F 29.86 in SE 2.6 mph 4.6 mph 91 % 0.00 in
18:39 72.2 °F 69.7 °F 29.86 in SSE 0.3 mph 3.5 mph 92 % 0.00 in
18:44 72.2 °F 69.7 °F 29.86 in Calm   1.2 mph 92 % 0.00 in
18:49 72.2 °F 69.7 °F 29.87 in SSE 2.2 mph 3.5 mph 92 % 0.00 in
18:54 72.1 °F 69.6 °F 29.87 in SE 1.6 mph 4.6 mph 92 % 0.00 in
18:59 72.1 °F 69.6 °F 29.87 in SE 0.5 mph 2.3 mph 92 % 0.00 in
19:04 72.1 °F 69.6 °F 29.87 in SE 0.2 mph 1.2 mph 92 % 0.00 in
19:09 72.1 °F 70.0 °F 29.87 in SSE 1.4 mph 3.0 mph 93 % 0.00 in
19:14 72.1 °F 69.6 °F 29.86 in SSE 3.7 mph 6.9 mph 92 % 0.00 in
19:19 72.0 °F 69.5 °F 29.86 in SE 1.1 mph 8.1 mph 92 % 0.00 in
19:24 72.0 °F 69.5 °F 29.87 in SSE 5.0 mph 8.1 mph 92 % 0.00 in
19:30 71.9 °F 69.8 °F 29.86 in SE 1.9 mph 5.0 mph 93 % 0.00 in
19:35 71.8 °F 69.7 °F 29.86 in SE 1.9 mph 4.6 mph 93 % 0.00 in
19:40 71.7 °F 69.6 °F 29.86 in SE 1.8 mph 5.8 mph 93 % 0.00 in
19:45 71.6 °F 69.5 °F 29.86 in SSE 0.3 mph 3.5 mph 93 % 0.00 in
19:50 71.5 °F 69.7 °F 29.86 in SSE 0.2 mph 2.3 mph 94 % 0.00 in
19:55 71.4 °F 69.6 °F 29.86 in ESE 4.2 mph 8.1 mph 94 % 0.00 in
20:00 71.3 °F 69.5 °F 29.85 in SSE 1.4 mph 7.0 mph 94 % 0.00 in
20:05 71.1 °F 69.3 °F 29.85 in SE 3.3 mph 7.0 mph 94 % 0.00 in
20:10 71.0 °F 69.5 °F 29.86 in SSW 0.7 mph 3.5 mph 95 % 0.00 in
20:21 70.9 °F 69.4 °F 29.86 in SE 1.6 mph 3.5 mph 95 % 0.00 in
20:26 70.8 °F 69.3 °F 29.86 in SE 0.4 mph 2.3 mph 95 % 0.00 in
20:31 70.8 °F 69.3 °F 29.86 in SE 0.1 mph 1.2 mph 95 % 0.00 in
20:36 70.8 °F 69.3 °F 29.86 in SSE 0.1 mph 1.2 mph 95 % 0.00 in
20:41 70.8 °F 69.3 °F 29.86 in SSE 0.1 mph 1.2 mph 95 % 0.00 in
20:46 70.9 °F 69.4 °F 29.86 in SE 1.1 mph 3.5 mph 95 % 0.00 in
20:51 70.8 °F 69.3 °F 29.86 in SE 0.7 mph 2.0 mph 95 % 0.00 in
20:56 70.8 °F 69.3 °F 29.86 in SSE 1.9 mph 3.5 mph 95 % 0.00 in
21:01 70.8 °F 69.3 °F 29.86 in SSE 0.5 mph 2.3 mph 95 % 0.00 in
21:06 70.8 °F 69.3 °F 29.86 in SSE 0.2 mph 1.0 mph 95 % 0.00 in
21:12 70.8 °F 69.3 °F 29.86 in SSE 3.2 mph 4.0 mph 95 % 0.00 in
21:17 70.7 °F 69.2 °F 29.86 in SE 2.3 mph 6.9 mph 95 % 0.00 in
21:22 70.7 °F 69.2 °F 29.87 in SE 3.3 mph 5.8 mph 95 % 0.00 in
21:27 70.6 °F 69.1 °F 29.87 in SW 3.4 mph 8.1 mph 95 % 0.00 in
21:32 70.6 °F 69.4 °F 29.87 in SSE 1.7 mph 3.5 mph 96 % 0.00 in
21:37 70.6 °F 69.4 °F 29.87 in SSE 0.6 mph 2.0 mph 96 % 0.00 in
21:42 70.6 °F 69.4 °F 29.87 in SE 1.5 mph 3.5 mph 96 % 0.00 in
21:47 70.6 °F 69.4 °F 29.87 in SE 0.3 mph 1.2 mph 96 % 0.00 in
21:52 70.6 °F 69.4 °F 29.87 in SSE 1.4 mph 5.0 mph 96 % 0.00 in
22:03 70.6 °F 69.4 °F 29.87 in SSW 0.6 mph 2.3 mph 96 % 0.00 in
22:13 70.6 °F 69.4 °F 29.86 in SE 0.1 mph 1.2 mph 96 % 0.00 in
22:18 70.6 °F 69.4 °F 29.86 in Calm   1.2 mph 96 % 0.00 in
22:23 70.6 °F 69.4 °F 29.86 in SE 0.5 mph 3.5 mph 96 % 0.00 in
22:28 70.6 °F 69.4 °F 29.86 in WSW 1.1 mph 3.5 mph 96 % 0.00 in
22:33 70.6 °F 69.4 °F 29.86 in South 0.3 mph 1.0 mph 96 % 0.00 in
22:38 70.6 °F 69.4 °F 29.86 in Calm   1.2 mph 96 % 0.00 in
22:43 70.6 °F 69.4 °F 29.86 in SSE 0.7 mph 1.2 mph 96 % 0.00 in
22:54 70.6 °F 69.4 °F 29.85 in South 0.4 mph 2.0 mph 96 % 0.00 in
22:59 70.6 °F 69.4 °F 29.85 in SE 0.7 mph 3.5 mph 96 % 0.00 in
23:04 70.6 °F 69.4 °F 29.85 in SE 0.4 mph 2.3 mph 96 % 0.00 in
23:14 70.6 °F 69.4 °F 29.85 in WSW 0.5 mph 2.3 mph 96 % 0.00 in
23:19 70.6 °F 69.4 °F 29.85 in SE 0.1 mph 1.2 mph 96 % 0.00 in
23:24 70.6 °F 69.4 °F 29.85 in SSE 0.2 mph 1.2 mph 96 % 0.00 in
23:34 70.6 °F 69.4 °F 29.85 in SSE 0.1 mph 1.2 mph 96 % 0.00 in
23:39 70.7 °F 69.5 °F 29.85 in SSE 1.3 mph 4.0 mph 96 % 0.00 in
23:45 70.8 °F 69.6 °F 29.85 in SSE 0.9 mph 3.5 mph 96 % 0.00 in
23:50 70.8 °F 69.6 °F 29.85 in SW 0.8 mph 3.5 mph 96 % 0.00 in
23:55 70.8 °F 69.3 °F 29.85 in SE 0.4 mph 2.3 mph 95 % 0.00 in
Crab Meadow Weather
Compliments of Weather Underground - 2.75 mb

Script developed by  Jim McMurry - jmcmurry@mwt.net Adapted for the template by  Wim van der Kuil - Leuven-Template.eu

Astronomy: Neptune has at least 11 moons.